createdAt,value
2022-09-12T00:01:35.878Z,24.33
2022-09-12T00:04:03.563Z,23.87
2022-09-12T00:06:33.581Z,27.30
2022-09-12T00:09:04.458Z,24.47
2022-09-12T00:11:31.262Z,22.67
2022-09-12T00:13:59.989Z,26.93
2022-09-12T00:16:28.740Z,21.80
2022-09-12T00:18:55.431Z,23.93
2022-09-12T00:21:23.520Z,20.80
2022-09-12T00:23:51.551Z,24.93
2022-09-12T00:26:19.721Z,21.23
2022-09-12T00:28:46.916Z,24.43
2022-09-12T00:31:21.075Z,21.40
2022-09-12T00:33:47.908Z,22.70
2022-09-12T00:36:20.232Z,21.97
2022-09-12T00:38:49.167Z,19.23
2022-09-12T00:41:26.708Z,24.43
2022-09-12T00:44:00.450Z,24.40
2022-09-12T00:46:41.938Z,23.13
2022-09-12T00:49:23.112Z,25.20
2022-09-12T00:52:02.074Z,22.60
2022-09-12T00:54:33.934Z,23.80
2022-09-12T00:57:06.513Z,21.17
2022-09-12T00:59:48.510Z,22.20
2022-09-12T01:02:15.510Z,22.47
2022-09-12T01:04:44.441Z,21.90
2022-09-12T01:07:13.272Z,20.60
2022-09-12T01:09:41.723Z,21.70
2022-09-12T01:12:08.821Z,22.73
2022-09-12T01:14:36.996Z,21.63
2022-09-12T01:17:03.938Z,22.97
2022-09-12T01:19:48.834Z,22.43
2022-09-12T01:22:53.101Z,20.43
2022-09-12T01:25:50.235Z,26.27
2022-09-12T01:28:29.176Z,21.50
2022-09-12T01:31:04.830Z,21.30
2022-09-12T01:33:45.007Z,20.83
2022-09-12T01:36:28.317Z,23.33
2022-09-12T01:39:02.100Z,20.23
2022-09-12T01:41:42.886Z,21.33
2022-09-12T01:44:25.434Z,21.30
2022-09-12T01:46:59.758Z,19.17
2022-09-12T01:49:52.440Z,22.10
2022-09-12T01:52:50.082Z,20.17
2022-09-12T01:55:23.538Z,21.63
2022-09-12T01:58:07.904Z,19.73
2022-09-12T02:00:52.052Z,21.23
2022-09-12T02:03:29.516Z,22.20
2022-09-12T02:06:08.648Z,20.63
2022-09-12T02:08:43.332Z,23.03
2022-09-12T02:11:11.833Z,20.30
2022-09-12T02:13:43.140Z,20.73
2022-09-12T02:16:34.199Z,21.87
2022-09-12T02:19:16.065Z,18.97
2022-09-12T02:21:49.108Z,21.57
2022-09-12T02:24:18.250Z,22.07
2022-09-12T02:26:54.584Z,20.87
2022-09-12T02:29:21.391Z,19.87
2022-09-12T02:31:52.811Z,19.73
2022-09-12T02:35:12.259Z,19.27
2022-09-12T02:37:56.011Z,21.43
2022-09-12T02:40:23.323Z,18.67
2022-09-12T02:42:50.551Z,19.13
2022-09-12T02:45:17.952Z,20.80
2022-09-12T02:48:04.253Z,19.30
2022-09-12T02:50:32.132Z,24.53
2022-09-12T02:53:04.338Z,21.70
2022-09-12T02:55:34.006Z,21.97
2022-09-12T02:58:06.831Z,20.60
2022-09-12T03:00:48.027Z,21.73
2022-09-12T03:03:33.286Z,19.37
2022-09-12T03:06:03.142Z,22.90
2022-09-12T03:08:40.231Z,19.40
2022-09-12T03:11:16.427Z,20.33
2022-09-12T03:14:00.117Z,19.03
2022-09-12T03:16:46.663Z,18.63
2022-09-12T03:19:14.476Z,17.67
2022-09-12T03:21:56.394Z,17.63
2022-09-12T03:24:38.151Z,17.53
2022-09-12T03:27:17.439Z,18.30
2022-09-12T03:29:50.803Z,19.33
2022-09-12T03:32:18.166Z,17.23
2022-09-12T03:34:45.233Z,18.03
2022-09-12T03:37:11.877Z,19.97
2022-09-12T03:39:38.491Z,17.53
2022-09-12T03:42:05.263Z,18.03
2022-09-12T03:44:31.842Z,16.47
2022-09-12T03:46:58.771Z,15.73
2022-09-12T03:49:25.343Z,19.40
2022-09-12T03:51:55.259Z,17.63
2022-09-12T03:54:21.981Z,18.37
2022-09-12T03:56:48.579Z,15.30
2022-09-12T03:59:16.116Z,17.43
2022-09-12T04:01:42.776Z,16.30
2022-09-12T04:04:09.895Z,18.10
2022-09-12T04:06:36.458Z,14.87
2022-09-12T04:09:03.759Z,16.77
2022-09-12T04:11:32.167Z,16.40
2022-09-12T04:13:58.762Z,13.73
2022-09-12T04:16:25.397Z,12.97
2022-09-12T04:18:51.984Z,16.47
2022-09-12T04:21:23.314Z,13.43
2022-09-12T04:23:50.355Z,12.57
2022-09-12T04:26:18.437Z,13.53
2022-09-12T04:28:46.944Z,14.90
2022-09-12T04:31:17.985Z,13.73
2022-09-12T04:33:45.539Z,12.53
2022-09-12T04:36:16.947Z,12.93
2022-09-12T04:38:45.411Z,13.00
2022-09-12T04:41:19.403Z,12.80
2022-09-12T04:43:46.875Z,15.60
2022-09-12T04:46:15.407Z,15.87
2022-09-12T04:48:44.023Z,14.37
2022-09-12T04:51:15.856Z,14.80
2022-09-12T04:53:50.295Z,16.17
2022-09-12T04:56:16.945Z,14.60
2022-09-12T04:58:43.939Z,14.90
2022-09-12T05:01:14.677Z,14.27
2022-09-12T05:03:43.495Z,13.63
2022-09-12T05:06:16.604Z,14.40
2022-09-12T05:08:43.938Z,14.97
2022-09-12T05:11:26.657Z,14.63
2022-09-12T05:13:58.586Z,13.43
2022-09-12T05:16:28.546Z,15.20
2022-09-12T05:18:59.212Z,12.87
2022-09-12T05:21:27.055Z,14.87
2022-09-12T05:23:55.705Z,14.43
2022-09-12T05:26:23.854Z,12.10
2022-09-12T05:28:52.203Z,13.00
2022-09-12T05:31:23.115Z,12.43
2022-09-12T05:33:52.647Z,12.90
2022-09-12T05:36:28.686Z,13.13
2022-09-12T05:38:57.094Z,13.37
2022-09-12T05:41:26.078Z,11.00
2022-09-12T05:43:57.792Z,12.90
2022-09-12T05:46:27.145Z,14.13
2022-09-12T05:48:56.308Z,14.63
2022-09-12T05:51:26.712Z,13.20
2022-09-12T05:53:57.027Z,10.23
2022-09-12T05:56:26.155Z,13.43
2022-09-12T05:58:59.728Z,11.77
2022-09-12T06:01:28.120Z,13.17
2022-09-12T06:03:58.404Z,12.23
2022-09-12T06:06:27.764Z,10.97
2022-09-12T06:09:00.764Z,13.40
2022-09-12T06:11:30.486Z,10.30
2022-09-12T06:13:58.519Z,9.73
2022-09-12T06:16:30.646Z,11.17
2022-09-12T06:19:03.093Z,10.87
2022-09-12T06:21:31.306Z,10.30
2022-09-12T06:24:01.578Z,10.77
2022-09-12T06:26:29.291Z,10.57
2022-09-12T06:28:58.437Z,10.90
2022-09-12T06:31:29.146Z,10.93
2022-09-12T06:33:59.360Z,11.90
2022-09-12T06:36:28.676Z,9.80
2022-09-12T06:39:01.137Z,10.83
2022-09-12T06:41:29.117Z,9.23
2022-09-12T06:43:56.071Z,9.20
2022-09-12T06:46:23.323Z,10.43
2022-09-12T06:48:50.617Z,10.10
2022-09-12T06:51:20.065Z,10.90
2022-09-12T06:53:48.404Z,10.53
2022-09-12T06:56:20.717Z,10.70
2022-09-12T06:58:49.953Z,8.83
2022-09-12T07:01:22.207Z,12.23
2022-09-12T07:03:51.684Z,8.83
2022-09-12T07:06:21.130Z,8.53
2022-09-12T07:08:48.485Z,10.43
2022-09-12T07:11:20.164Z,8.90
2022-09-12T07:13:49.534Z,9.67
2022-09-12T07:16:19.899Z,12.03
2022-09-12T07:19:02.654Z,9.40
2022-09-12T07:21:30.299Z,9.63
2022-09-12T07:24:00.599Z,10.87
2022-09-12T07:26:30.378Z,10.70
2022-09-12T07:29:18.638Z,9.70
2022-09-12T07:31:45.712Z,13.23
2022-09-12T07:34:12.878Z,12.03
2022-09-12T07:36:39.629Z,10.37
2022-09-12T07:39:07.347Z,10.57
2022-09-12T07:41:34.247Z,11.63
2022-09-12T07:44:03.200Z,11.73
2022-09-12T07:46:31.567Z,10.90
2022-09-12T07:49:00.078Z,9.93
2022-09-12T07:51:28.870Z,11.07
2022-09-12T07:53:57.283Z,11.23
2022-09-12T07:56:30.522Z,10.63
2022-09-12T07:58:59.918Z,10.97
2022-09-12T08:01:26.990Z,11.23
2022-09-12T08:03:59.373Z,11.60
2022-09-12T08:06:30.306Z,13.20
2022-09-12T08:08:59.573Z,13.07
2022-09-12T08:11:30.706Z,10.77
2022-09-12T08:13:58.280Z,11.57
2022-09-12T08:16:31.300Z,10.87
2022-09-12T08:19:04.392Z,10.27
2022-09-12T08:21:32.842Z,10.83
2022-09-12T08:24:02.564Z,10.97
2022-09-12T08:26:31.210Z,10.37
2022-09-12T08:28:58.598Z,11.57
2022-09-12T08:31:27.363Z,11.47
2022-09-12T08:33:58.163Z,10.67
2022-09-12T08:36:27.390Z,10.50
2022-09-12T08:38:59.892Z,11.10
2022-09-12T08:41:39.586Z,11.20
2022-09-12T08:44:15.847Z,9.97
2022-09-12T08:47:01.462Z,10.60
2022-09-12T08:49:53.769Z,10.97
2022-09-12T08:52:25.117Z,10.40
2022-09-12T08:54:53.811Z,10.73
2022-09-12T08:57:24.203Z,10.20
2022-09-12T08:59:52.995Z,9.50
2022-09-12T09:02:42.226Z,10.90
2022-09-12T09:05:37.180Z,11.33
2022-09-12T09:08:32.723Z,9.73
2022-09-12T09:11:16.793Z,8.93
2022-09-12T09:14:20.753Z,9.50
2022-09-12T09:16:50.675Z,9.00
2022-09-12T09:19:20.281Z,12.33
2022-09-12T09:22:13.574Z,10.03
2022-09-12T09:24:45.986Z,8.87
2022-09-12T09:27:39.896Z,9.93
2022-09-12T09:30:16.091Z,9.37
2022-09-12T09:32:44.093Z,9.90
2022-09-12T09:35:24.910Z,9.17
2022-09-12T09:38:09.642Z,8.67
2022-09-12T09:40:49.202Z,8.47
2022-09-12T09:43:25.567Z,8.77
2022-09-12T09:45:53.065Z,8.77
2022-09-12T09:48:27.336Z,8.30
2022-09-12T09:50:54.158Z,9.33
2022-09-12T09:53:35.179Z,10.87
2022-09-12T09:56:07.866Z,7.47
2022-09-12T09:58:35.900Z,7.00
2022-09-12T10:01:07.469Z,7.10
2022-09-12T10:03:40.435Z,10.07
2022-09-12T10:06:28.843Z,9.77
2022-09-12T10:09:09.591Z,7.03
2022-09-12T10:11:39.768Z,6.50
2022-09-12T10:14:27.056Z,9.30
2022-09-12T10:16:53.881Z,6.50
2022-09-12T10:19:26.886Z,6.57
2022-09-12T10:21:57.138Z,5.63
2022-09-12T10:24:31.439Z,6.03
2022-09-12T10:27:06.158Z,6.67
2022-09-12T10:29:39.308Z,6.77
2022-09-12T10:32:09.271Z,6.03
2022-09-12T10:34:38.178Z,8.87
2022-09-12T10:37:08.318Z,3.70
2022-09-12T10:39:38.403Z,4.47
2022-09-12T10:42:08.399Z,5.57
2022-09-12T10:44:35.598Z,4.40
2022-09-12T10:47:32.000Z,4.63
2022-09-12T10:50:39.149Z,5.27
2022-09-12T10:53:20.422Z,4.77
2022-09-12T10:56:10.079Z,4.30
2022-09-12T10:58:58.529Z,5.53
2022-09-12T11:01:49.340Z,5.17
2022-09-12T11:04:24.963Z,3.73
2022-09-12T11:07:14.147Z,4.57
2022-09-12T11:09:47.099Z,3.53
2022-09-12T11:12:23.657Z,5.10
2022-09-12T11:15:22.414Z,4.33
2022-09-12T11:18:04.632Z,3.63
2022-09-12T11:21:09.706Z,5.33
2022-09-12T11:23:56.046Z,3.73
2022-09-12T11:26:50.689Z,2.80
2022-09-12T11:29:22.264Z,3.27
2022-09-12T11:32:31.447Z,4.90
2022-09-12T11:35:25.240Z,5.20
2022-09-12T11:37:55.494Z,3.30
2022-09-12T11:41:02.420Z,3.30
2022-09-12T11:43:56.296Z,3.73
2022-09-12T11:46:31.687Z,2.40
2022-09-12T11:49:05.709Z,2.60
2022-09-12T11:52:00.577Z,5.43
2022-09-12T11:54:42.595Z,2.67
2022-09-12T11:57:35.800Z,2.50
2022-09-12T12:00:36.236Z,2.83
2022-09-12T12:03:07.405Z,2.93
2022-09-12T12:05:50.494Z,2.30
2022-09-12T12:08:17.390Z,2.50
2022-09-12T12:10:51.456Z,4.07
2022-09-12T12:13:21.099Z,3.33
2022-09-12T12:15:53.582Z,2.90
2022-09-12T12:18:23.944Z,3.00
2022-09-12T12:20:53.299Z,2.63
2022-09-12T12:23:34.963Z,5.17
2022-09-12T12:26:03.926Z,3.33
2022-09-12T12:28:42.902Z,3.20
2022-09-12T12:31:11.870Z,3.53
2022-09-12T12:33:38.384Z,4.60
2022-09-12T12:36:10.812Z,3.40
2022-09-12T12:38:40.124Z,2.97
2022-09-12T12:41:19.090Z,2.60
2022-09-12T12:43:53.295Z,5.67
2022-09-12T12:46:28.620Z,4.03
2022-09-12T12:49:29.382Z,3.00
2022-09-12T12:52:01.600Z,2.93
2022-09-12T12:54:52.538Z,3.00
2022-09-12T12:57:22.455Z,2.93
2022-09-12T12:59:56.724Z,3.80
2022-09-12T13:02:37.517Z,2.67
2022-09-12T13:05:16.320Z,2.73
2022-09-12T13:07:48.083Z,2.77
2022-09-12T13:10:29.564Z,2.57
2022-09-12T13:13:00.031Z,2.30
2022-09-12T13:15:56.470Z,3.17
2022-09-12T13:18:45.641Z,2.87
2022-09-12T13:21:14.933Z,2.70
2022-09-12T13:23:42.222Z,3.10
2022-09-12T13:26:12.530Z,3.07
2022-09-12T13:28:39.245Z,2.60
2022-09-12T13:31:32.879Z,2.77
2022-09-12T13:34:05.601Z,3.30
2022-09-12T13:36:41.632Z,3.33
2022-09-12T13:39:29.221Z,2.30
2022-09-12T13:42:03.128Z,2.67
2022-09-12T13:44:32.894Z,2.40
2022-09-12T13:47:03.586Z,2.40
2022-09-12T13:49:37.750Z,2.57
2022-09-12T13:52:14.875Z,4.10
2022-09-12T13:54:46.081Z,2.80
2022-09-12T13:57:32.415Z,2.83
2022-09-12T14:00:06.289Z,4.77
2022-09-12T14:02:36.738Z,5.77
2022-09-12T14:05:14.528Z,4.83
2022-09-12T14:08:08.599Z,2.87
2022-09-12T14:13:32.160Z,3.10
2022-09-12T14:16:00.573Z,3.10
2022-09-12T14:18:31.245Z,2.87
2022-09-12T14:21:10.484Z,3.57
2022-09-12T14:23:42.795Z,3.80
2022-09-12T14:26:13.416Z,3.70
2022-09-12T14:28:42.363Z,2.83
2022-09-12T14:31:19.151Z,3.00
2022-09-12T14:34:08.846Z,4.33
2022-09-12T14:36:40.258Z,2.67
2022-09-12T14:39:18.297Z,3.33
2022-09-12T14:41:46.546Z,4.37
2022-09-12T14:44:39.710Z,3.30
2022-09-12T14:47:16.583Z,3.70
2022-09-12T14:49:43.734Z,3.50
2022-09-12T14:52:40.399Z,3.47
2022-09-12T14:55:18.805Z,3.13
2022-09-12T14:57:47.898Z,3.10
2022-09-12T15:00:22.200Z,2.57
2022-09-12T15:02:51.099Z,3.10
2022-09-12T15:05:21.818Z,3.90
2022-09-12T15:07:54.698Z,3.00
2022-09-12T15:10:27.638Z,3.50
2022-09-12T15:13:17.759Z,3.27
2022-09-12T15:15:53.683Z,3.50
2022-09-12T15:18:22.394Z,3.03
2022-09-12T15:20:52.909Z,2.63
2022-09-12T15:23:35.252Z,4.20
2022-09-12T15:26:02.533Z,3.93
2022-09-12T15:28:31.984Z,2.63
2022-09-12T15:31:06.673Z,2.60
2022-09-12T15:33:33.787Z,3.40
2022-09-12T15:36:00.493Z,2.83
2022-09-12T15:38:27.262Z,3.23
2022-09-12T15:40:54.748Z,3.60
2022-09-12T15:43:25.411Z,3.27
2022-09-12T15:45:53.351Z,3.33
2022-09-12T15:48:21.087Z,2.50
2022-09-12T15:50:48.452Z,3.57
2022-09-12T15:53:18.867Z,4.73
2022-09-12T15:55:45.733Z,5.10
2022-09-12T15:58:12.986Z,3.93
2022-09-12T16:00:39.621Z,2.60
2022-09-12T16:03:06.568Z,2.50
2022-09-12T16:05:33.424Z,3.73
2022-09-12T16:08:00.139Z,3.67
2022-09-12T16:10:30.246Z,2.60
2022-09-12T16:12:57.877Z,2.27
2022-09-12T16:15:33.515Z,2.30
2022-09-12T16:18:00.222Z,2.83
2022-09-12T16:20:27.205Z,2.63
2022-09-12T16:22:53.782Z,4.63
2022-09-12T16:25:24.377Z,2.90
2022-09-12T16:27:51.229Z,3.63
2022-09-12T16:30:18.006Z,2.73
2022-09-12T16:32:44.838Z,5.33
2022-09-12T16:35:11.457Z,3.57
2022-09-12T16:37:38.583Z,2.60
2022-09-12T16:40:06.534Z,3.80
2022-09-12T16:42:34.140Z,2.70
2022-09-12T16:45:00.865Z,3.87
2022-09-12T16:47:27.699Z,3.40
2022-09-12T16:49:54.547Z,2.37
2022-09-12T16:52:21.581Z,2.63
2022-09-12T16:54:48.213Z,2.43
2022-09-12T16:57:15.813Z,2.00
2022-09-12T16:59:43.611Z,3.90
2022-09-12T17:02:13.640Z,4.93
2022-09-12T17:04:40.575Z,2.60
2022-09-12T17:07:08.040Z,3.80
2022-09-12T17:09:35.059Z,4.53
2022-09-12T17:12:02.063Z,3.63
2022-09-12T17:14:28.704Z,2.77
2022-09-12T17:16:55.565Z,3.33
2022-09-12T17:19:32.258Z,3.00
2022-09-12T17:21:59.190Z,3.20
2022-09-12T17:24:26.771Z,3.07
2022-09-12T17:26:54.872Z,4.67
2022-09-12T17:29:21.480Z,3.03
2022-09-12T17:31:48.817Z,3.70
2022-09-12T17:34:16.637Z,3.20
2022-09-12T17:36:45.475Z,2.63
2022-09-12T17:39:13.910Z,3.53
2022-09-12T17:41:46.234Z,2.90
2022-09-12T17:44:15.028Z,3.60
2022-09-12T17:46:43.113Z,3.17
2022-09-12T17:49:18.714Z,3.50
2022-09-12T17:51:45.720Z,3.17
2022-09-12T17:54:16.111Z,3.83
2022-09-12T17:56:45.612Z,3.20
2022-09-12T17:59:15.996Z,3.90
2022-09-12T18:02:02.028Z,3.43
2022-09-12T18:04:28.847Z,4.70
2022-09-12T18:06:57.774Z,3.03
2022-09-12T18:09:27.938Z,3.33
2022-09-12T18:11:55.432Z,2.53
2022-09-12T18:14:22.905Z,4.27
2022-09-12T18:16:50.424Z,3.53
2022-09-12T18:19:17.287Z,3.03
2022-09-12T18:21:44.112Z,3.83
2022-09-12T18:24:12.642Z,2.23
2022-09-12T18:26:39.462Z,2.20
2022-09-12T18:29:06.293Z,3.93
2022-09-12T18:31:33.063Z,4.00
2022-09-12T18:34:00.950Z,2.20
2022-09-12T18:36:28.408Z,2.53
2022-09-12T18:38:57.405Z,2.37
2022-09-12T18:41:24.830Z,2.73
2022-09-12T18:43:59.665Z,2.97
2022-09-12T18:46:27.972Z,2.97
2022-09-12T18:48:57.684Z,2.40
2022-09-12T18:51:34.654Z,2.13
2022-09-12T18:54:05.398Z,3.83
2022-09-12T18:56:34.380Z,3.47
2022-09-12T18:59:03.576Z,2.60
2022-09-12T19:01:32.820Z,3.43
2022-09-12T19:04:02.851Z,2.57
2022-09-12T19:06:36.869Z,2.73
2022-09-12T19:09:08.046Z,2.53
2022-09-12T19:11:37.164Z,3.27
2022-09-12T19:14:04.761Z,2.60
2022-09-12T19:16:32.061Z,3.57
2022-09-12T19:18:59.179Z,2.17
2022-09-12T19:21:28.343Z,2.90
2022-09-12T19:24:05.501Z,2.77
2022-09-12T19:26:33.051Z,4.43
2022-09-12T19:29:02.481Z,3.60
2022-09-12T19:31:29.908Z,4.60
2022-09-12T19:34:01.003Z,5.47
2022-09-12T19:36:46.730Z,3.20
2022-09-12T19:39:17.770Z,3.10
2022-09-12T19:41:45.788Z,4.43
2022-09-12T19:44:13.301Z,3.20
2022-09-12T19:46:41.773Z,3.20
2022-09-12T19:49:11.780Z,3.87
2022-09-12T19:51:38.608Z,6.47
2022-09-12T19:54:06.332Z,5.10
2022-09-12T19:56:33.028Z,10.60
2022-09-12T19:59:00.196Z,8.70
2022-09-12T20:01:30.804Z,5.50
2022-09-12T20:03:58.723Z,3.80
2022-09-12T20:06:26.071Z,6.57
2022-09-12T20:08:53.763Z,3.00
2022-09-12T20:11:25.536Z,3.37
2022-09-12T20:13:53.489Z,3.60
2022-09-12T20:16:30.163Z,2.73
2022-09-12T20:18:59.711Z,3.10
2022-09-12T20:21:32.694Z,4.13
2022-09-12T20:24:07.497Z,2.93
2022-09-12T20:26:34.320Z,3.27
2022-09-12T20:29:01.274Z,3.17
2022-09-12T20:31:28.693Z,4.67
2022-09-12T20:33:56.685Z,3.10
2022-09-12T20:36:25.041Z,6.40
2022-09-12T20:38:57.555Z,4.20
2022-09-12T20:41:25.470Z,4.53
2022-09-12T20:43:53.362Z,4.33
2022-09-12T20:46:23.630Z,4.90
2022-09-12T20:48:51.265Z,4.00
2022-09-12T20:51:22.091Z,5.23
2022-09-12T20:53:55.689Z,4.43
2022-09-12T20:56:23.682Z,3.90
2022-09-12T20:58:51.217Z,3.77
2022-09-12T21:01:21.415Z,2.73
2022-09-12T21:03:51.436Z,5.00
2022-09-12T21:06:18.533Z,3.00
2022-09-12T21:08:47.559Z,3.27
2022-09-12T21:11:16.642Z,8.23
2022-09-12T21:13:43.397Z,3.80
2022-09-12T21:16:18.650Z,3.10
2022-09-12T21:18:45.942Z,3.20
2022-09-12T21:21:14.227Z,4.00
2022-09-12T21:25:58.430Z,3.03
2022-09-12T21:28:25.367Z,2.50
2022-09-12T21:30:52.333Z,3.00
2022-09-12T21:33:20.893Z,3.03
2022-09-12T21:35:48.984Z,2.60
2022-09-12T21:38:19.733Z,4.97
2022-09-12T21:40:47.687Z,3.90
2022-09-12T21:43:14.687Z,2.57
2022-09-12T21:45:41.328Z,3.20
2022-09-12T21:48:08.330Z,4.40
2022-09-12T21:50:35.168Z,5.07
2022-09-12T21:53:01.953Z,3.47
2022-09-12T21:55:29.347Z,3.17
2022-09-12T21:57:56.248Z,3.30
2022-09-12T22:00:23.382Z,2.93
2022-09-12T22:02:50.663Z,4.87
2022-09-12T22:05:21.266Z,3.90
2022-09-12T22:07:49.598Z,3.47
2022-09-12T22:10:16.559Z,3.43
2022-09-12T22:12:46.217Z,3.40
2022-09-12T22:15:38.941Z,3.23
2022-09-12T22:18:01.010Z,3.43
2022-09-12T22:20:27.603Z,4.77
2022-09-12T22:23:13.605Z,4.57
2022-09-12T22:25:40.447Z,5.27
2022-09-12T22:28:07.210Z,3.37
2022-09-12T22:30:34.692Z,4.33
2022-09-12T22:33:01.471Z,5.77
2022-09-12T22:35:28.202Z,3.23
2022-09-12T22:37:54.716Z,3.20
2022-09-12T22:40:21.403Z,4.00
2022-09-12T22:42:50.898Z,3.50
2022-09-12T22:45:18.323Z,4.27
2022-09-12T22:47:44.816Z,3.17
2022-09-12T22:50:12.187Z,3.70
2022-09-12T22:52:38.711Z,4.80
2022-09-12T22:55:05.508Z,3.63
2022-09-12T22:57:32.225Z,6.73
2022-09-12T22:59:58.987Z,3.60
2022-09-12T23:02:25.692Z,3.90
2022-09-12T23:04:52.420Z,4.07
2022-09-12T23:07:19.087Z,5.63
2022-09-12T23:09:46.319Z,5.37
